createdAt,value
2018-08-09T00:00:32.762Z,73.90
2018-08-09T00:03:00.303Z,74.80
2018-08-09T00:05:27.763Z,75.10
2018-08-09T00:07:55.292Z,75.50
2018-08-09T00:10:22.681Z,75.80
2018-08-09T00:12:50.103Z,75.50
2018-08-09T00:15:17.478Z,75.30
2018-08-09T00:17:44.872Z,75.00
2018-08-09T00:20:12.650Z,74.90
2018-08-09T00:22:40.014Z,74.80
2018-08-09T00:25:07.901Z,74.60
2018-08-09T00:27:35.476Z,74.60
2018-08-09T00:30:03.885Z,75.20
2018-08-09T00:32:31.561Z,75.30
2018-08-09T00:34:59.013Z,75.20
2018-08-09T00:37:26.365Z,75.10
2018-08-09T00:39:53.794Z,74.50
2018-08-09T00:42:21.488Z,74.30
2018-08-09T00:44:49.180Z,74.00
2018-08-09T00:47:16.553Z,73.60
2018-08-09T00:49:44.034Z,73.90
2018-08-09T00:52:11.420Z,74.50
2018-08-09T00:54:38.881Z,74.50
2018-08-09T00:57:06.335Z,74.30
2018-08-09T00:59:33.802Z,74.70
2018-08-09T01:02:01.198Z,74.00
2018-08-09T01:04:28.707Z,74.20
2018-08-09T01:06:56.101Z,74.60
2018-08-09T01:09:23.533Z,74.40
2018-08-09T01:11:50.981Z,74.50
2018-08-09T01:14:18.409Z,74.50
2018-08-09T01:16:45.890Z,74.80
2018-08-09T01:19:13.373Z,74.40
2018-08-09T01:21:40.807Z,74.60
2018-08-09T01:24:08.218Z,75.00
2018-08-09T01:26:35.751Z,75.60
2018-08-09T01:29:03.278Z,76.10
2018-08-09T01:31:35.002Z,76.50
2018-08-09T01:34:04.054Z,76.80
2018-08-09T01:36:31.855Z,77.00
2018-08-09T01:38:59.287Z,77.10
2018-08-09T01:41:26.910Z,77.00
2018-08-09T01:43:59.614Z,77.00
2018-08-09T01:46:27.463Z,77.10
2018-08-09T01:48:55.675Z,77.30
2018-08-09T01:51:23.474Z,77.10
2018-08-09T01:53:51.566Z,76.70
2018-08-09T01:56:19.109Z,76.70
2018-08-09T01:58:46.863Z,77.40
2018-08-09T02:01:14.564Z,76.10
2018-08-09T02:03:42.216Z,75.70
2018-08-09T02:06:09.945Z,75.50
2018-08-09T02:08:37.366Z,75.50
2018-08-09T02:11:04.867Z,75.00
2018-08-09T02:13:32.306Z,75.50
2018-08-09T02:15:59.758Z,75.70
2018-08-09T02:18:27.171Z,75.60
2018-08-09T02:20:54.592Z,75.90
2018-08-09T02:23:22.033Z,75.80
2018-08-09T02:25:49.514Z,75.70
2018-08-09T02:28:17.346Z,75.40
2018-08-09T02:30:44.786Z,75.50
2018-08-09T02:33:12.251Z,75.30
2018-08-09T02:35:39.644Z,75.30
2018-08-09T02:38:07.109Z,75.10
2018-08-09T02:40:34.558Z,75.40
2018-08-09T02:43:01.994Z,75.60
2018-08-09T02:45:29.469Z,75.50
2018-08-09T02:47:56.873Z,75.50
2018-08-09T02:50:24.276Z,76.00
2018-08-09T02:52:52.765Z,75.90
2018-08-09T02:55:20.246Z,76.00
2018-08-09T02:57:47.643Z,76.20
2018-08-09T03:00:15.483Z,76.20
2018-08-09T03:02:42.958Z,76.50
2018-08-09T03:05:10.591Z,77.60
2018-08-09T03:07:38.060Z,76.70
2018-08-09T03:10:05.643Z,76.50
2018-08-09T03:12:33.117Z,76.70
2018-08-09T03:15:01.068Z,76.80
2018-08-09T03:17:28.667Z,77.00
2018-08-09T03:19:56.076Z,77.50
2018-08-09T03:22:23.622Z,77.70
2018-08-09T03:24:51.472Z,77.90
2018-08-09T03:27:19.074Z,77.70
2018-08-09T03:29:46.593Z,77.60
2018-08-09T03:32:13.973Z,78.20
2018-08-09T03:34:41.370Z,77.60
2018-08-09T03:37:08.799Z,77.70
2018-08-09T03:39:36.221Z,77.90
2018-08-09T03:42:03.728Z,78.00
2018-08-09T03:44:31.473Z,77.90
2018-08-09T03:46:58.882Z,78.40
2018-08-09T03:49:26.283Z,78.50
2018-08-09T03:51:53.907Z,78.20
2018-08-09T03:54:21.363Z,78.20
2018-08-09T03:56:48.790Z,78.20
2018-08-09T03:59:16.191Z,78.30
2018-08-09T04:01:43.642Z,78.40
2018-08-09T04:04:11.126Z,78.70
2018-08-09T04:06:39.609Z,78.80
2018-08-09T04:09:08.349Z,78.90
2018-08-09T04:11:35.800Z,79.10
2018-08-09T04:14:03.279Z,79.30
2018-08-09T04:16:31.013Z,79.20
2018-08-09T04:18:58.426Z,79.30
2018-08-09T04:21:25.951Z,79.60
2018-08-09T04:23:53.431Z,79.60
2018-08-09T04:26:20.988Z,79.70
2018-08-09T04:28:48.740Z,80.00
2018-08-09T04:31:16.242Z,80.10
2018-08-09T04:33:43.806Z,80.00
2018-08-09T04:36:11.362Z,80.30
2018-08-09T04:38:38.859Z,80.00
2018-08-09T04:41:06.469Z,80.70
2018-08-09T04:43:34.341Z,80.90
2018-08-09T04:46:01.913Z,81.20
2018-08-09T04:48:29.273Z,81.00
2018-08-09T04:50:56.655Z,81.40
2018-08-09T04:53:24.107Z,81.80
2018-08-09T04:55:51.637Z,81.50
2018-08-09T04:58:19.108Z,81.30
2018-08-09T05:00:46.551Z,81.00
2018-08-09T05:03:13.938Z,81.00
2018-08-09T05:05:41.610Z,80.70
2018-08-09T05:08:09.063Z,80.70
2018-08-09T05:10:36.802Z,80.80
2018-08-09T05:13:04.308Z,80.80
2018-08-09T05:15:31.806Z,80.90
2018-08-09T05:17:59.205Z,80.70
2018-08-09T05:20:26.669Z,80.80
2018-08-09T05:22:54.219Z,81.10
2018-08-09T05:25:21.718Z,81.40
2018-08-09T05:27:49.247Z,81.90
2018-08-09T05:30:16.777Z,82.10
2018-08-09T05:32:44.327Z,82.60
2018-08-09T05:35:11.901Z,82.60
2018-08-09T05:37:39.444Z,82.80
2018-08-09T05:40:06.926Z,82.80
2018-08-09T05:42:34.484Z,82.50
2018-08-09T05:45:02.141Z,82.80
2018-08-09T05:47:29.738Z,83.00
2018-08-09T05:49:57.378Z,82.80
2018-08-09T05:52:24.841Z,82.20
2018-08-09T05:54:52.365Z,82.30
2018-08-09T05:57:19.856Z,82.60
2018-08-09T05:59:47.350Z,82.60
2018-08-09T06:02:14.805Z,82.40
2018-08-09T06:04:42.282Z,82.00
2018-08-09T06:07:09.700Z,81.80
2018-08-09T06:09:37.462Z,81.80
2018-08-09T06:12:05.002Z,81.80
2018-08-09T06:14:32.576Z,81.50
2018-08-09T06:17:00.012Z,81.80
2018-08-09T06:19:27.434Z,82.00
2018-08-09T06:21:54.887Z,82.10
2018-08-09T06:24:22.336Z,82.00
2018-08-09T06:26:49.810Z,82.00
2018-08-09T06:29:17.327Z,81.70
2018-08-09T06:31:44.918Z,81.30
2018-08-09T06:34:12.532Z,81.50
2018-08-09T06:36:39.933Z,81.20
2018-08-09T06:39:08.027Z,80.90
2018-08-09T06:41:36.086Z,81.00
2018-08-09T06:44:03.761Z,81.10
2018-08-09T06:46:31.223Z,81.10
2018-08-09T06:48:58.719Z,80.80
2018-08-09T06:51:26.234Z,80.70
2018-08-09T06:53:53.705Z,81.20
2018-08-09T06:56:21.210Z,80.70
2018-08-09T06:58:48.683Z,80.50
2018-08-09T07:01:16.201Z,80.50
2018-08-09T07:03:43.691Z,80.50
2018-08-09T07:06:11.214Z,80.30
2018-08-09T07:08:38.676Z,80.00
2018-08-09T07:11:06.453Z,79.90
2018-08-09T07:13:33.860Z,79.70
2018-08-09T07:16:01.405Z,79.70
2018-08-09T07:18:29.114Z,79.50
2018-08-09T07:20:56.514Z,79.50
2018-08-09T07:23:24.017Z,79.40
2018-08-09T07:25:51.555Z,79.30
2018-08-09T07:28:19.005Z,79.30
2018-08-09T07:30:46.530Z,79.10
2018-08-09T07:33:14.748Z,79.10
2018-08-09T07:35:42.327Z,79.10
2018-08-09T07:38:09.764Z,78.90
2018-08-09T07:40:37.199Z,78.90
2018-08-09T07:43:04.696Z,78.80
2018-08-09T07:45:32.220Z,78.80
2018-08-09T07:47:59.681Z,78.70
2018-08-09T07:50:27.226Z,78.50
2018-08-09T07:52:54.797Z,78.30
2018-08-09T07:55:22.231Z,78.20
2018-08-09T07:57:49.700Z,78.90
2018-08-09T08:00:17.156Z,78.10
2018-08-09T08:02:44.744Z,78.20
2018-08-09T08:05:12.203Z,78.30
2018-08-09T08:07:39.765Z,78.30
2018-08-09T08:10:08.489Z,78.30
2018-08-09T08:12:35.932Z,78.20
2018-08-09T08:15:04.983Z,78.20
2018-08-09T08:17:32.431Z,78.20
2018-08-09T08:20:00.013Z,78.00
2018-08-09T08:22:27.546Z,77.80
2018-08-09T08:24:55.026Z,77.80
2018-08-09T08:27:22.531Z,77.80
2018-08-09T08:29:49.998Z,78.00
2018-08-09T08:32:17.354Z,78.00
2018-08-09T08:34:44.801Z,78.00
2018-08-09T08:37:12.301Z,78.10
2018-08-09T08:39:39.719Z,78.10
2018-08-09T08:42:07.172Z,78.00
2018-08-09T08:44:34.733Z,77.90
2018-08-09T08:47:02.192Z,77.90
2018-08-09T08:49:29.640Z,77.80
2018-08-09T08:51:57.108Z,77.70
2018-08-09T08:54:24.524Z,77.70
2018-08-09T08:56:51.939Z,77.70
2018-08-09T08:59:19.452Z,77.50
2018-08-09T09:01:46.918Z,77.50
2018-08-09T09:04:14.403Z,77.50
2018-08-09T09:06:41.911Z,77.30
2018-08-09T09:09:11.355Z,77.30
2018-08-09T09:11:38.809Z,77.40
2018-08-09T09:14:06.415Z,77.40
2018-08-09T09:16:34.026Z,77.30
2018-08-09T09:19:01.500Z,77.10
2018-08-09T09:21:29.053Z,76.90
2018-08-09T09:23:56.607Z,76.90
2018-08-09T09:26:24.146Z,76.70
2018-08-09T09:28:51.566Z,76.60
2018-08-09T09:31:18.998Z,76.60
2018-08-09T09:33:46.513Z,76.60
2018-08-09T09:36:14.064Z,76.70
2018-08-09T09:38:41.510Z,77.40
2018-08-09T09:41:08.948Z,78.40
2018-08-09T09:43:36.443Z,80.10
2018-08-09T09:46:04.315Z,85.60
2018-08-09T09:48:31.800Z,88.30
2018-08-09T09:50:59.295Z,89.70
2018-08-09T09:53:26.819Z,90.80
2018-08-09T09:55:54.331Z,91.60
2018-08-09T09:58:21.859Z,92.30
2018-08-09T10:00:54.885Z,92.90
2018-08-09T10:03:22.324Z,93.20
2018-08-09T10:05:49.715Z,93.60
2018-08-09T10:08:17.157Z,93.90
2018-08-09T10:10:44.508Z,94.20
2018-08-09T10:13:11.859Z,94.60
2018-08-09T10:15:39.390Z,94.90
2018-08-09T10:18:06.832Z,94.90
2018-08-09T10:20:34.219Z,95.00
2018-08-09T10:23:01.699Z,95.00
2018-08-09T10:25:29.295Z,94.90
2018-08-09T10:27:56.702Z,94.80
2018-08-09T10:30:24.181Z,94.50
2018-08-09T10:32:51.662Z,94.50
2018-08-09T10:35:19.209Z,94.20
2018-08-09T10:37:46.675Z,94.10
2018-08-09T10:40:14.114Z,94.10
2018-08-09T10:42:41.615Z,94.20
2018-08-09T10:45:09.030Z,94.30
2018-08-09T10:47:36.742Z,94.30
2018-08-09T10:50:04.302Z,94.10
2018-08-09T10:52:31.773Z,93.90
2018-08-09T10:54:59.608Z,93.80
2018-08-09T10:57:26.971Z,93.80
2018-08-09T10:59:54.386Z,93.90
2018-08-09T11:02:21.778Z,93.90
2018-08-09T11:04:49.240Z,93.90
2018-08-09T11:07:16.728Z,93.80
2018-08-09T11:09:44.101Z,93.70
2018-08-09T11:12:11.666Z,93.60
2018-08-09T11:14:39.097Z,93.70
2018-08-09T11:17:06.624Z,93.40
2018-08-09T11:19:34.126Z,93.30
2018-08-09T11:22:01.561Z,93.30
2018-08-09T11:24:29.051Z,93.20
2018-08-09T11:26:56.557Z,93.10
2018-08-09T11:29:24.081Z,92.90
2018-08-09T11:31:51.565Z,93.10
2018-08-09T11:34:19.050Z,93.10
2018-08-09T11:36:46.494Z,93.10
2018-08-09T11:39:13.878Z,93.20
2018-08-09T11:41:41.369Z,93.10
2018-08-09T11:44:09.789Z,93.10
2018-08-09T11:46:37.209Z,92.80
2018-08-09T11:49:04.733Z,92.90
2018-08-09T11:51:32.233Z,92.80
2018-08-09T11:53:59.637Z,93.10
2018-08-09T11:56:27.038Z,92.90
2018-08-09T11:58:54.410Z,92.50
2018-08-09T12:01:21.830Z,92.30
2018-08-09T12:03:49.212Z,92.00
2018-08-09T12:06:16.665Z,91.80
2018-08-09T12:08:44.060Z,91.50
2018-08-09T12:11:11.580Z,91.30
2018-08-09T12:13:39.139Z,91.30
2018-08-09T12:16:06.626Z,91.20
2018-08-09T12:18:34.192Z,91.10
2018-08-09T12:21:01.664Z,91.00
2018-08-09T12:23:29.145Z,90.90
2018-08-09T12:25:56.618Z,90.80
2018-08-09T12:28:24.965Z,90.70
2018-08-09T12:30:52.397Z,90.70
2018-08-09T12:33:19.853Z,90.60
2018-08-09T12:35:47.458Z,90.40
2018-08-09T12:38:14.902Z,90.30
2018-08-09T12:40:42.460Z,90.20
2018-08-09T12:43:09.872Z,90.10
2018-08-09T12:45:37.386Z,90.30
2018-08-09T12:48:05.146Z,90.00
2018-08-09T12:50:32.665Z,90.30
2018-08-09T12:53:00.115Z,90.20
2018-08-09T12:55:27.585Z,90.40
2018-08-09T12:57:55.155Z,91.10
2018-08-09T13:00:22.733Z,92.60
2018-08-09T13:02:50.196Z,93.70
2018-08-09T13:05:17.667Z,94.40
2018-08-09T13:07:45.204Z,95.00
2018-08-09T13:10:13.326Z,95.30
2018-08-09T13:12:40.901Z,96.00
2018-08-09T13:15:11.085Z,96.70
2018-08-09T13:17:38.737Z,97.30
2018-08-09T13:20:08.489Z,97.90
2018-08-09T13:22:36.373Z,98.30
2018-08-09T13:25:04.335Z,98.50
2018-08-09T13:27:31.836Z,98.70
2018-08-09T13:29:59.390Z,98.90
2018-08-09T13:32:26.840Z,99.00
2018-08-09T13:34:54.325Z,99.30
2018-08-09T13:37:21.775Z,99.40
2018-08-09T13:39:49.307Z,99.30
2018-08-09T13:42:17.072Z,98.40
2018-08-09T13:44:44.635Z,97.70
2018-08-09T13:47:12.202Z,96.80
2018-08-09T13:49:39.677Z,96.50
2018-08-09T13:52:07.286Z,95.90
2018-08-09T13:54:34.816Z,95.50
2018-08-09T13:57:02.359Z,95.20
2018-08-09T13:59:29.909Z,95.00
2018-08-09T14:01:57.354Z,94.90
2018-08-09T14:04:24.856Z,95.00
2018-08-09T14:06:52.607Z,94.90
2018-08-09T14:09:20.098Z,94.90
2018-08-09T14:11:47.851Z,94.80
2018-08-09T14:14:15.325Z,94.80
2018-08-09T14:16:42.778Z,94.80
2018-08-09T14:19:10.369Z,94.90
2018-08-09T14:21:38.221Z,94.80
2018-08-09T14:24:06.366Z,94.80
2018-08-09T14:26:33.921Z,94.50
2018-08-09T14:29:01.379Z,94.80
2018-08-09T14:31:29.140Z,95.00
2018-08-09T14:33:56.773Z,95.40
2018-08-09T14:36:24.348Z,95.70
2018-08-09T14:38:52.025Z,95.80
2018-08-09T14:41:19.738Z,95.60
2018-08-09T14:43:47.276Z,95.70
2018-08-09T14:46:14.823Z,95.60
2018-08-09T14:48:42.546Z,95.70
2018-08-09T14:51:10.031Z,95.30
2018-08-09T14:53:37.895Z,95.20
2018-08-09T14:56:05.429Z,95.60
2018-08-09T14:58:32.945Z,95.20
2018-08-09T15:01:00.391Z,95.20
2018-08-09T15:03:27.914Z,95.40
2018-08-09T15:05:55.602Z,95.70
2018-08-09T15:08:23.058Z,95.30
2018-08-09T15:10:50.679Z,95.40
2018-08-09T15:13:18.307Z,95.50
2018-08-09T15:15:45.852Z,95.60
2018-08-09T15:18:13.450Z,95.70
2018-08-09T15:20:40.881Z,95.70
2018-08-09T15:23:08.534Z,95.70
2018-08-09T15:25:36.037Z,95.80
2018-08-09T15:28:03.547Z,95.90
2018-08-09T15:30:30.982Z,96.00
2018-08-09T15:32:58.721Z,96.00
2018-08-09T15:35:26.264Z,96.10
2018-08-09T15:37:53.876Z,96.10
2018-08-09T15:40:21.450Z,96.20
2018-08-09T15:45:20.103Z,96.10
2018-08-09T15:47:47.596Z,96.00
2018-08-09T15:50:17.376Z,96.00
2018-08-09T15:52:45.068Z,95.90
2018-08-09T15:55:13.846Z,95.80
2018-08-09T15:57:43.337Z,95.40
2018-08-09T16:00:14.418Z,95.10
2018-08-09T16:02:41.918Z,94.90
2018-08-09T16:05:09.452Z,94.70
2018-08-09T16:07:37.093Z,94.30
2018-08-09T16:10:07.246Z,93.80
2018-08-09T16:12:34.839Z,93.00
2018-08-09T16:15:02.333Z,91.60
2018-08-09T16:17:29.863Z,91.10
2018-08-09T16:19:57.474Z,90.70
2018-08-09T16:22:24.965Z,90.60
2018-08-09T16:24:52.395Z,90.30
2018-08-09T16:27:19.874Z,90.10
2018-08-09T16:29:47.285Z,90.10
2018-08-09T16:32:14.886Z,90.20
2018-08-09T16:34:42.416Z,90.10
2018-08-09T16:37:09.834Z,90.00
2018-08-09T16:39:37.363Z,90.00
2018-08-09T16:42:05.027Z,89.80
2018-08-09T16:44:32.566Z,89.70
2018-08-09T16:47:00.297Z,90.20
2018-08-09T16:49:28.216Z,89.70
2018-08-09T16:51:55.717Z,89.50
2018-08-09T16:54:24.636Z,89.60
2018-08-09T16:56:56.497Z,89.50
2018-08-09T16:59:24.801Z,89.40
2018-08-09T17:01:52.363Z,89.40
2018-08-09T17:04:20.189Z,89.20
2018-08-09T17:06:48.082Z,89.00
2018-08-09T17:09:15.589Z,88.30
2018-08-09T17:11:44.225Z,88.40
2018-08-09T17:14:12.977Z,87.40
2018-08-09T17:16:40.496Z,87.20
2018-08-09T17:19:08.389Z,87.30
2018-08-09T17:21:36.322Z,87.40
2018-08-09T17:24:04.338Z,87.50
2018-08-09T17:26:32.208Z,87.80
2018-08-09T17:28:59.758Z,89.40
2018-08-09T17:31:27.446Z,94.40
2018-08-09T17:33:55.167Z,96.00
2018-08-09T17:36:22.604Z,96.20
2018-08-09T17:38:50.200Z,96.80
2018-08-09T17:41:17.777Z,96.60
2018-08-09T17:43:45.289Z,96.40
2018-08-09T17:46:13.011Z,96.50
2018-08-09T17:48:40.505Z,96.40
2018-08-09T17:51:08.160Z,96.50
2018-08-09T17:53:35.689Z,96.70
2018-08-09T17:56:03.700Z,96.70
2018-08-09T17:58:31.363Z,96.70
2018-08-09T18:00:59.850Z,96.70
2018-08-09T18:03:27.650Z,96.90
2018-08-09T18:05:55.422Z,96.80
2018-08-09T18:08:22.882Z,96.80
2018-08-09T18:10:50.879Z,96.60
2018-08-09T18:13:19.980Z,96.60
2018-08-09T18:15:48.309Z,96.40
2018-08-09T18:18:16.597Z,96.40
2018-08-09T18:20:44.298Z,96.40
2018-08-09T18:23:12.847Z,96.30
2018-08-09T18:25:40.990Z,96.20
2018-08-09T18:28:09.183Z,96.30
2018-08-09T18:30:36.776Z,96.00
2018-08-09T18:33:04.342Z,95.90
2018-08-09T18:35:31.815Z,95.40
2018-08-09T18:38:01.532Z,95.40
2018-08-09T18:40:29.505Z,95.50
2018-08-09T18:42:59.324Z,95.20
2018-08-09T18:45:28.227Z,95.10
2018-08-09T18:47:56.616Z,95.00
2018-08-09T18:50:27.402Z,95.00
2018-08-09T18:52:55.332Z,94.80
2018-08-09T18:55:22.891Z,94.90
2018-08-09T18:57:50.587Z,94.70
2018-08-09T19:00:22.038Z,94.70
2018-08-09T19:02:52.158Z,94.50
2018-08-09T19:05:19.893Z,94.50
2018-08-09T19:07:47.608Z,94.20
2018-08-09T19:10:19.870Z,93.90
2018-08-09T19:12:47.778Z,93.90
2018-08-09T19:15:15.473Z,93.30
2018-08-09T19:17:43.387Z,92.40
2018-08-09T19:20:16.919Z,92.40
2018-08-09T19:22:45.655Z,92.00
2018-08-09T19:25:13.721Z,91.80
2018-08-09T19:27:41.752Z,91.80
2018-08-09T19:30:09.837Z,91.50
2018-08-09T19:32:38.157Z,91.50
2018-08-09T19:35:07.819Z,91.60
2018-08-09T19:37:35.389Z,91.20
2018-08-09T19:40:03.705Z,91.10
2018-08-09T19:42:31.212Z,91.00
2018-08-09T19:44:59.068Z,91.00
2018-08-09T19:47:27.865Z,90.90
2018-08-09T19:49:55.676Z,90.80
2018-08-09T19:52:24.068Z,90.80
2018-08-09T19:54:52.877Z,90.80
2018-08-09T19:57:20.541Z,90.80
2018-08-09T19:59:48.128Z,90.90
2018-08-09T20:02:15.717Z,90.90
2018-08-09T20:04:43.189Z,90.80
2018-08-09T20:07:10.618Z,90.60
2018-08-09T20:09:38.272Z,90.80
2018-08-09T20:12:06.225Z,90.70
2018-08-09T20:14:34.246Z,90.60
2018-08-09T20:17:01.712Z,90.80
2018-08-09T20:19:29.226Z,90.70
2018-08-09T20:21:56.781Z,90.20
2018-08-09T20:24:24.281Z,89.70
2018-08-09T20:26:51.898Z,89.40
2018-08-09T20:29:19.378Z,89.00
2018-08-09T20:31:46.923Z,87.80
2018-08-09T20:34:14.391Z,87.90
2018-08-09T20:36:41.843Z,87.80
2018-08-09T20:39:11.617Z,87.30
2018-08-09T20:41:39.135Z,87.40
2018-08-09T20:44:06.728Z,88.30
2018-08-09T20:46:34.195Z,87.90
2018-08-09T20:49:01.782Z,88.60
2018-08-09T20:51:29.425Z,88.40
2018-08-09T20:53:56.805Z,88.80
2018-08-09T20:56:24.387Z,89.00
2018-08-09T20:58:51.862Z,89.20
2018-08-09T21:01:19.326Z,89.30
2018-08-09T21:03:46.795Z,89.30
2018-08-09T21:06:14.325Z,89.10
2018-08-09T21:08:41.978Z,89.30
2018-08-09T21:11:09.445Z,89.20
2018-08-09T21:13:37.019Z,89.20
2018-08-09T21:16:04.774Z,89.10
2018-08-09T21:18:32.191Z,89.30
2018-08-09T21:21:00.623Z,89.30
2018-08-09T21:23:28.152Z,88.90
2018-08-09T21:25:55.736Z,89.00
2018-08-09T21:28:23.260Z,88.70
2018-08-09T21:30:50.720Z,88.80
2018-08-09T21:33:18.254Z,88.80
2018-08-09T21:35:45.771Z,88.60
2018-08-09T21:38:13.183Z,88.80
2018-08-09T21:40:40.950Z,89.00
2018-08-09T21:43:08.443Z,88.40
2018-08-09T21:45:36.122Z,89.00
2018-08-09T21:48:03.773Z,88.90
2018-08-09T21:50:31.227Z,89.30
2018-08-09T21:52:58.723Z,89.90
2018-08-09T21:55:26.278Z,90.80
2018-08-09T21:57:53.777Z,90.90
2018-08-09T22:00:56.202Z,90.70
2018-08-09T22:03:25.541Z,90.90
2018-08-09T22:05:58.828Z,90.70
2018-08-09T22:08:32.013Z,90.70
2018-08-09T22:11:05.403Z,90.70
2018-08-09T22:13:38.553Z,91.00
2018-08-09T22:16:11.985Z,91.00
2018-08-09T22:18:45.335Z,91.10
2018-08-09T22:21:18.430Z,91.00
2018-08-09T22:23:46.603Z,91.30
2018-08-09T22:26:14.193Z,91.50
2018-08-09T22:28:42.258Z,91.50
2018-08-09T22:31:09.710Z,91.70
2018-08-09T22:33:37.107Z,91.90
2018-08-09T22:36:04.899Z,91.70
2018-08-09T22:38:32.375Z,91.40
2018-08-09T22:41:00.913Z,91.40
2018-08-09T22:43:28.374Z,91.70
2018-08-09T22:45:55.861Z,92.10
2018-08-09T22:48:23.548Z,92.70
2018-08-09T22:50:50.978Z,92.40
2018-08-09T22:53:18.398Z,92.50
2018-08-09T22:55:46.466Z,92.50
2018-08-09T22:58:14.222Z,92.30
2018-08-09T23:00:41.898Z,92.30
2018-08-09T23:03:10.689Z,92.20
2018-08-09T23:05:38.329Z,92.00
2018-08-09T23:08:07.429Z,91.40
2018-08-09T23:10:34.806Z,91.40
2018-08-09T23:13:02.440Z,90.90
2018-08-09T23:15:30.002Z,91.00
2018-08-09T23:17:57.685Z,91.00
2018-08-09T23:20:25.099Z,90.90
2018-08-09T23:22:52.585Z,90.70
2018-08-09T23:25:20.045Z,90.60
2018-08-09T23:27:47.753Z,91.10
2018-08-09T23:30:15.213Z,90.90
2018-08-09T23:32:42.681Z,90.70
2018-08-09T23:35:10.673Z,90.80
2018-08-09T23:37:38.147Z,90.70
2018-08-09T23:40:07.756Z,90.80
2018-08-09T23:42:36.160Z,90.80
2018-08-09T23:45:04.220Z,90.90
2018-08-09T23:47:31.729Z,90.80
2018-08-09T23:49:59.206Z,91.00
2018-08-09T23:52:26.681Z,91.00
2018-08-09T23:54:54.126Z,90.90
2018-08-09T23:57:21.575Z,90.90
2018-08-09T23:59:49.132Z,90.80
